Time;durP1;ratioP1;P1;durP2;ratioP2;P2;SDS_P1;SDS_P2;PMS_P1;PMS_P2;Temp;Humidity;BMP_temperature;BMP_pressure;BME280_temperature;BME280_humidity;BME280_pressure;Samples;Min_cycle;Max_cycle;Signal;HPM_P1;HPM_P2
2023/01/27 00:02:08;;;;;;;0.30;0.30;;;;;;;;;;5112665;28;20246;-67
2023/01/27 00:04:34;;;;;;;0.30;0.30;;;;;;;;;;5124399;28;20239;-67
2023/01/27 00:07:00;;;;;;;0.20;0.20;;;;;;;;;;5112410;28;20310;-67
2023/01/27 00:09:27;;;;;;;0.20;0.20;;;;;;;;;;5124396;28;20235;-67
2023/01/27 00:14:38;;;;;;;0.30;0.30;;;;;;;;;;5124490;28;20241;-68
2023/01/27 00:17:05;;;;;;;0.20;0.20;;;;;;;;;;5112243;28;20258;-72
2023/01/27 00:19:31;;;;;;;0.20;0.20;;;;;;;;;;5124087;28;20271;-68
2023/01/27 00:24:42;;;;;;;0.30;0.30;;;;;;;;;;5124465;28;20203;-65
2023/01/27 00:27:10;;;;;;;0.30;0.30;;;;;;;;;;5112261;28;20243;-66
2023/01/27 00:29:36;;;;;;;0.30;0.30;;;;;;;;;;5125955;28;20207;-65
2023/01/27 00:34:47;;;;;;;0.30;0.30;;;;;;;;;;5128343;28;20300;-66
2023/01/27 00:37:14;;;;;;;0.30;0.30;;;;;;;;;;5116056;28;20436;-66
2023/01/27 00:39:40;;;;;;;0.30;0.30;;;;;;;;;;5128170;28;20224;-66
2023/01/27 00:42:07;;;;;;;0.30;0.30;;;;;;;;;;5116020;28;20603;-66
2023/01/27 00:44:35;;;;;;;0.30;0.30;;;;;;;;;;5127978;28;20203;-65
2023/01/27 00:47:01;;;;;;;0.30;0.30;;;;;;;;;;5116024;28;20259;-66
2023/01/27 00:49:27;;;;;;;0.30;0.30;;;;;;;;;;5127817;28;20204;-65
2023/01/27 00:51:54;;;;;;;0.20;0.20;;;;;;;;;;5115925;28;20301;-66
2023/01/27 00:54:21;;;;;;;0.30;0.30;;;;;;;;;;5127722;28;20204;-66
2023/01/27 00:56:47;;;;;;;0.30;0.30;;;;;;;;;;5115880;28;20253;-66
2023/01/27 00:59:13;;;;;;;0.30;0.30;;;;;;;;;;5127406;28;20234;-65
2023/01/27 01:01:41;;;;;;;0.20;0.20;;;;;;;;;;5115969;28;20454;-66
2023/01/27 01:04:07;;;;;;;0.30;0.30;;;;;;;;;;5127414;28;20277;-66
2023/01/27 01:06:34;;;;;;;0.30;0.30;;;;;;;;;;5115994;28;20290;-66
2023/01/27 01:09:00;;;;;;;0.30;0.30;;;;;;;;;;5127031;28;20269;-66
2023/01/27 01:11:27;;;;;;;0.30;0.30;;;;;;;;;;5115682;28;20245;-66
2023/01/27 01:13:53;;;;;;;0.30;0.30;;;;;;;;;;5126920;28;20236;-66
2023/01/27 01:16:21;;;;;;;0.30;0.30;;;;;;;;;;5115629;28;20233;-66
2023/01/27 01:18:49;;;;;;;0.30;0.30;;;;;;;;;;5126676;28;20221;-66
2023/01/27 01:21:16;;;;;;;0.30;0.30;;;;;;;;;;5115780;28;20543;-66
2023/01/27 01:23:43;;;;;;;0.30;0.30;;;;;;;;;;5126814;28;20281;-66
2023/01/27 01:26:10;;;;;;;0.30;0.30;;;;;;;;;;5115646;28;20251;-66
2023/01/27 01:28:37;;;;;;;0.20;0.20;;;;;;;;;;5126637;28;20463;-66
2023/01/27 01:31:07;;;;;;;0.30;0.30;;;;;;;;;;5115730;28;20565;-66
2023/01/27 01:33:33;;;;;;;0.30;0.30;;;;;;;;;;5126273;28;20234;-67
2023/01/27 01:36:05;;;;;;;0.30;0.30;;;;;;;;;;5115757;28;20483;-66
2023/01/27 01:38:31;;;;;;;0.30;0.30;;;;;;;;;;5126334;28;20442;-66
2023/01/27 01:40:57;;;;;;;0.30;0.30;;;;;;;;;;5114499;28;20502;-65
2023/01/27 01:43:25;;;;;;;0.30;0.30;;;;;;;;;;5126072;28;20572;-67
2023/01/27 01:45:53;;;;;;;0.30;0.30;;;;;;;;;;5115722;28;20298;-66
2023/01/27 01:48:22;;;;;;;0.30;0.30;;;;;;;;;;5125810;28;20204;-66
2023/01/27 01:50:52;;;;;;;0.30;0.30;;;;;;;;;;5115614;28;20302;-65
2023/01/27 01:53:20;;;;;;;0.30;0.30;;;;;;;;;;5125704;28;20268;-65
2023/01/27 01:55:47;;;;;;;0.20;0.20;;;;;;;;;;5115222;28;20249;-66
2023/01/27 01:58:14;;;;;;;0.30;0.30;;;;;;;;;;5125798;28;20431;-66
2023/01/27 02:00:40;;;;;;;0.27;0.27;;;;;;;;;;5115372;28;20308;-66
2023/01/27 02:03:07;;;;;;;0.30;0.30;;;;;;;;;;5125602;28;20201;-66
2023/01/27 02:05:35;;;;;;;0.30;0.30;;;;;;;;;;5115467;28;20423;-66
2023/01/27 02:08:05;;;;;;;0.30;0.30;;;;;;;;;;5125418;28;20226;-66
2023/01/27 02:10:33;;;;;;;0.23;0.23;;;;;;;;;;5115349;28;20475;-65
2023/01/27 02:12:59;;;;;;;0.30;0.30;;;;;;;;;;5125317;28;20555;-66
2023/01/27 02:15:26;;;;;;;0.30;0.30;;;;;;;;;;5115414;28;23440;-65
2023/01/27 02:17:52;;;;;;;0.30;0.30;;;;;;;;;;5124780;28;20240;-65
2023/01/27 02:20:22;;;;;;;0.20;0.20;;;;;;;;;;5115275;28;20443;-65
2023/01/27 02:22:55;;;;;;;0.30;0.30;;;;;;;;;;5124718;28;20281;-66
2023/01/27 02:25:25;;;;;;;0.30;0.30;;;;;;;;;;5115296;28;20261;-66
2023/01/27 02:27:52;;;;;;;0.30;0.30;;;;;;;;;;5124978;28;20256;-66
2023/01/27 02:30:19;;;;;;;0.30;0.30;;;;;;;;;;5115045;28;20273;-66
2023/01/27 02:32:45;;;;;;;0.30;0.30;;;;;;;;;;5124736;28;20262;-66
2023/01/27 02:35:15;;;;;;;0.30;0.30;;;;;;;;;;5114811;28;20203;-66
2023/01/27 02:37:41;;;;;;;0.20;0.20;;;;;;;;;;5124258;28;20343;-65
2023/01/27 02:40:09;;;;;;;0.30;0.30;;;;;;;;;;5116992;28;20275;-66
2023/01/27 02:42:35;;;;;;;0.30;0.30;;;;;;;;;;5124013;28;20214;-66
2023/01/27 02:45:03;;;;;;;0.30;0.30;;;;;;;;;;5125525;28;20518;-66
2023/01/27 02:47:30;;;;;;;0.30;0.30;;;;;;;;;;5113844;28;20251;-66
2023/01/27 02:49:56;;;;;;;0.30;0.30;;;;;;;;;;5125609;28;20375;-66
2023/01/27 02:52:22;;;;;;;0.20;0.20;;;;;;;;;;5113248;28;20275;-66
2023/01/27 02:54:49;;;;;;;0.20;0.20;;;;;;;;;;5125577;28;20234;-66
2023/01/27 02:57:15;;;;;;;0.30;0.30;;;;;;;;;;5113415;28;20308;-66
2023/01/27 02:59:41;;;;;;;0.30;0.30;;;;;;;;;;5124923;28;20211;-66
2023/01/27 03:02:13;;;;;;;0.30;0.30;;;;;;;;;;5113286;28;20251;-66
2023/01/27 03:04:39;;;;;;;0.30;0.30;;;;;;;;;;5125347;28;20553;-66
2023/01/27 03:07:06;;;;;;;0.20;0.20;;;;;;;;;;5113302;28;20257;-66
2023/01/27 03:09:32;;;;;;;0.30;0.30;;;;;;;;;;5125296;28;20518;-66
2023/01/27 03:20:12;;;;;;;0.20;0.20;;;;;;;;;;5114051;28;20206;-65
2023/01/27 03:22:39;;;;;;;0.30;0.30;;;;;;;;;;5123568;28;20280;-65
2023/01/27 03:25:05;;;;;;;0.20;0.20;;;;;;;;;;5124519;28;20233;-66
2023/01/27 03:27:32;;;;;;;0.30;0.30;;;;;;;;;;5096103;28;20246;-66
2023/01/27 03:29:58;;;;;;;0.27;0.27;;;;;;;;;;5124676;28;20451;-65
2023/01/27 03:32:26;;;;;;;0.27;0.27;;;;;;;;;;5112751;28;20241;-65
2023/01/27 03:34:56;;;;;;;0.27;0.27;;;;;;;;;;5124879;28;20455;-66
2023/01/27 03:48:20;;;;;;;0.30;0.30;;;;;;;;;;5123864;28;20193;-66
2023/01/27 03:50:52;;;;;;;0.30;0.30;;;;;;;;;;5113308;28;20239;-66
2023/01/27 03:53:18;;;;;;;0.30;0.30;;;;;;;;;;5123838;28;20210;-66
2023/01/27 03:55:45;;;;;;;0.20;0.20;;;;;;;;;;5113217;28;20247;-66
2023/01/27 03:58:18;;;;;;;0.20;0.20;;;;;;;;;;5123626;28;20221;-66
2023/01/27 04:00:45;;;;;;;0.30;0.30;;;;;;;;;;5113371;28;20278;-66
2023/01/27 04:08:41;;;;;;;0.30;0.30;;;;;;;;;;5128123;28;20298;-66
2023/01/27 04:13:52;;;;;;;0.30;0.30;;;;;;;;;;5128222;28;20203;-66
2023/01/27 04:16:18;;;;;;;0.30;0.30;;;;;;;;;;5116844;28;20282;-67
2023/01/27 04:18:45;;;;;;;0.30;0.30;;;;;;;;;;5128092;28;20386;-66
2023/01/27 04:21:13;;;;;;;0.30;0.30;;;;;;;;;;5116969;28;20599;-66
2023/01/27 04:23:39;;;;;;;0.30;0.30;;;;;;;;;;5127623;28;20206;-66
2023/01/27 04:26:05;;;;;;;0.30;0.30;;;;;;;;;;5116851;28;20238;-65
2023/01/27 04:28:32;;;;;;;0.30;0.30;;;;;;;;;;5127558;28;20206;-65
2023/01/27 04:30:59;;;;;;;0.30;0.30;;;;;;;;;;5116958;28;20597;-65
2023/01/27 04:33:25;;;;;;;0.30;0.30;;;;;;;;;;5127305;28;20248;-65
2023/01/27 04:35:52;;;;;;;0.30;0.30;;;;;;;;;;5116964;28;20603;-65
2023/01/27 04:38:19;;;;;;;0.30;0.30;;;;;;;;;;5127143;28;20253;-66
2023/01/27 04:40:46;;;;;;;0.30;0.30;;;;;;;;;;5116775;28;20491;-65
2023/01/27 04:43:12;;;;;;;0.30;0.30;;;;;;;;;;5126922;28;20277;-65
2023/01/27 04:45:39;;;;;;;0.30;0.30;;;;;;;;;;5116670;28;20247;-66
2023/01/27 04:48:06;;;;;;;0.30;0.30;;;;;;;;;;5126945;28;20451;-65
2023/01/27 04:50:32;;;;;;;0.30;0.30;;;;;;;;;;5116751;28;20241;-65
2023/01/27 04:52:59;;;;;;;0.30;0.30;;;;;;;;;;5126902;28;20273;-65
2023/01/27 04:55:27;;;;;;;0.30;0.30;;;;;;;;;;5116931;28;20239;-66
2023/01/27 04:57:53;;;;;;;0.30;0.30;;;;;;;;;;5126499;28;20537;-65
2023/01/27 05:00:20;;;;;;;0.30;0.30;;;;;;;;;;5116771;28;20572;-66
2023/01/27 05:02:46;;;;;;;0.30;0.30;;;;;;;;;;5126156;28;20263;-66
2023/01/27 05:05:13;;;;;;;0.30;0.30;;;;;;;;;;5116719;28;20233;-66
2023/01/27 05:07:39;;;;;;;0.30;0.30;;;;;;;;;;5126376;28;20532;-65
2023/01/27 05:10:06;;;;;;;0.30;0.30;;;;;;;;;;5127094;28;20202;-67
2023/01/27 05:12:34;;;;;;;0.30;0.30;;;;;;;;;;5098533;28;20607;-66
2023/01/27 05:15:00;;;;;;;0.30;0.30;;;;;;;;;;5127226;28;20457;-65
2023/01/27 05:17:30;;;;;;;0.30;0.30;;;;;;;;;;5115260;28;20231;-65
2023/01/27 05:19:56;;;;;;;0.30;0.30;;;;;;;;;;5127080;28;20228;-65
2023/01/27 05:22:23;;;;;;;0.30;0.30;;;;;;;;;;5115098;28;20304;-65
2023/01/27 05:24:49;;;;;;;0.30;0.30;;;;;;;;;;5127254;28;20245;-65
2023/01/27 05:27:16;;;;;;;0.30;0.30;;;;;;;;;;5115092;28;20305;-66
2023/01/27 05:29:43;;;;;;;0.30;0.30;;;;;;;;;;5126631;28;20243;-66
2023/01/27 05:32:10;;;;;;;0.30;0.30;;;;;;;;;;5115029;28;20303;-66
2023/01/27 05:34:36;;;;;;;0.30;0.30;;;;;;;;;;5127073;28;20275;-66
2023/01/27 05:37:03;;;;;;;0.40;0.40;;;;;;;;;;5114968;28;20241;-66
2023/01/27 05:39:29;;;;;;;0.30;0.30;;;;;;;;;;5126331;28;20202;-66
2023/01/27 05:41:55;;;;;;;0.30;0.30;;;;;;;;;;5115066;28;20240;-66
2023/01/27 05:44:22;;;;;;;0.30;0.30;;;;;;;;;;5126644;28;20210;-66
2023/01/27 05:46:49;;;;;;;0.30;0.30;;;;;;;;;;5114848;28;20322;-66
2023/01/27 05:49:16;;;;;;;0.30;0.30;;;;;;;;;;5126583;28;20247;-66
2023/01/27 05:51:42;;;;;;;0.30;0.30;;;;;;;;;;5114948;28;20310;-66
2023/01/27 05:54:09;;;;;;;0.30;0.30;;;;;;;;;;5126268;28;20205;-66
2023/01/27 05:56:35;;;;;;;0.30;0.30;;;;;;;;;;5114989;28;20245;-66
2023/01/27 05:59:02;;;;;;;0.30;0.30;;;;;;;;;;5126023;28;20262;-66
2023/01/27 06:01:29;;;;;;;0.30;0.30;;;;;;;;;;5114957;28;20250;-66
2023/01/27 06:03:56;;;;;;;0.30;0.30;;;;;;;;;;5125929;28;20271;-66
2023/01/27 06:06:24;;;;;;;0.30;0.30;;;;;;;;;;5114714;28;20259;-66
2023/01/27 06:08:50;;;;;;;0.30;0.30;;;;;;;;;;5125899;28;20203;-66
2023/01/27 06:11:18;;;;;;;0.30;0.30;;;;;;;;;;5114897;28;20495;-66
2023/01/27 06:13:45;;;;;;;0.30;0.30;;;;;;;;;;5125633;28;20202;-66
2023/01/27 06:16:12;;;;;;;0.30;0.30;;;;;;;;;;5114751;28;20238;-65
2023/01/27 06:18:39;;;;;;;0.30;0.30;;;;;;;;;;5125514;28;20255;-66
2023/01/27 06:21:08;;;;;;;0.30;0.30;;;;;;;;;;5114637;28;20384;-66
2023/01/27 06:23:34;;;;;;;0.30;0.30;;;;;;;;;;5125429;28;20394;-66
2023/01/27 06:26:01;;;;;;;0.30;0.30;;;;;;;;;;5114831;28;20263;-66
2023/01/27 06:28:28;;;;;;;0.30;0.30;;;;;;;;;;5124555;28;20229;-67
2023/01/27 06:30:54;;;;;;;0.30;0.30;;;;;;;;;;5114429;28;20259;-67
2023/01/27 06:33:20;;;;;;;0.30;0.30;;;;;;;;;;5125189;28;20203;-66
2023/01/27 06:35:47;;;;;;;0.20;0.20;;;;;;;;;;5114615;28;20303;-67
2023/01/27 06:38:15;;;;;;;0.30;0.30;;;;;;;;;;5124945;28;20539;-66
2023/01/27 06:40:41;;;;;;;0.30;0.30;;;;;;;;;;5114668;28;20250;-66
2023/01/27 06:43:10;;;;;;;0.30;0.30;;;;;;;;;;5124626;28;20269;-66
2023/01/27 06:45:37;;;;;;;0.30;0.30;;;;;;;;;;5114457;28;20310;-66
2023/01/27 06:48:03;;;;;;;0.30;0.30;;;;;;;;;;5124676;28;20269;-66
2023/01/27 06:50:30;;;;;;;0.30;0.30;;;;;;;;;;5114343;28;20240;-67
2023/01/27 06:52:59;;;;;;;0.30;0.30;;;;;;;;;;5124494;28;20261;-67
2023/01/27 06:55:27;;;;;;;0.30;0.30;;;;;;;;;;5114360;28;20337;-66
2023/01/27 06:57:53;;;;;;;0.30;0.30;;;;;;;;;;5124104;28;20226;-68
2023/01/27 07:00:20;;;;;;;0.30;0.30;;;;;;;;;;5114352;28;20275;-68
2023/01/27 07:02:46;;;;;;;0.30;0.30;;;;;;;;;;5124244;28;20223;-68
2023/01/27 07:05:13;;;;;;;0.30;0.30;;;;;;;;;;5114563;28;20204;-68
2023/01/27 07:07:39;;;;;;;0.30;0.30;;;;;;;;;;5123818;28;20497;-68
2023/01/27 07:10:06;;;;;;;0.30;0.30;;;;;;;;;;5124800;28;20240;-68
2023/01/27 07:12:36;;;;;;;0.30;0.30;;;;;;;;;;5096328;28;20218;-68
2023/01/27 07:15:03;;;;;;;0.30;0.30;;;;;;;;;;5124623;28;20209;-68
2023/01/27 07:17:29;;;;;;;0.30;0.30;;;;;;;;;;5112953;28;20315;-69
2023/01/27 07:19:55;;;;;;;0.30;0.30;;;;;;;;;;5125152;28;20208;-68
2023/01/27 07:22:22;;;;;;;0.27;0.27;;;;;;;;;;5112925;28;20242;-70
2023/01/27 07:24:48;;;;;;;0.30;0.30;;;;;;;;;;5125107;28;20210;-68
2023/01/27 07:27:14;;;;;;;0.30;0.30;;;;;;;;;;5112932;28;20240;-68
2023/01/27 07:29:42;;;;;;;0.30;0.30;;;;;;;;;;5124945;28;20204;-67
2023/01/27 07:32:09;;;;;;;0.30;0.30;;;;;;;;;;5112845;28;20582;-68
2023/01/27 07:34:35;;;;;;;0.30;0.30;;;;;;;;;;5124868;28;20225;-68
2023/01/27 07:37:02;;;;;;;0.30;0.30;;;;;;;;;;5112935;28;20259;-68
2023/01/27 07:39:28;;;;;;;0.30;0.30;;;;;;;;;;5123751;28;20231;-67
2023/01/27 07:41:56;;;;;;;0.30;0.30;;;;;;;;;;5112793;28;20310;-68
2023/01/27 07:44:22;;;;;;;0.30;0.30;;;;;;;;;;5124652;28;20207;-69
2023/01/27 07:46:50;;;;;;;0.30;0.30;;;;;;;;;;5112905;28;20317;-67
2023/01/27 07:49:16;;;;;;;0.23;0.23;;;;;;;;;;5124504;28;20392;-68
2023/01/27 07:51:43;;;;;;;0.30;0.30;;;;;;;;;;5112987;28;20285;-67
2023/01/27 07:54:09;;;;;;;0.30;0.30;;;;;;;;;;5124300;28;20196;-67
2023/01/27 07:56:36;;;;;;;0.30;0.30;;;;;;;;;;5112901;28;20307;-68
2023/01/27 07:59:02;;;;;;;0.20;0.20;;;;;;;;;;5124166;28;20225;-68
2023/01/27 08:01:29;;;;;;;0.30;0.30;;;;;;;;;;5112926;28;20463;-68
2023/01/27 08:03:57;;;;;;;0.30;0.30;;;;;;;;;;5124147;28;20270;-68
2023/01/27 08:06:23;;;;;;;0.30;0.30;;;;;;;;;;5112800;28;20315;-68
2023/01/27 08:08:49;;;;;;;0.30;0.30;;;;;;;;;;5123560;28;20266;-68
2023/01/27 08:11:16;;;;;;;0.30;0.30;;;;;;;;;;5112932;28;20302;-68
2023/01/27 08:13:42;;;;;;;0.20;0.20;;;;;;;;;;5123698;28;20210;-67
2023/01/27 08:16:11;;;;;;;0.20;0.20;;;;;;;;;;5112819;28;20235;-67
2023/01/27 08:18:37;;;;;;;0.30;0.30;;;;;;;;;;5123489;28;20272;-66
2023/01/27 08:21:07;;;;;;;0.30;0.30;;;;;;;;;;5113164;28;20307;-66
2023/01/27 08:23:33;;;;;;;0.23;0.23;;;;;;;;;;5123232;28;20458;-66
2023/01/27 08:26:01;;;;;;;0.30;0.30;;;;;;;;;;5113112;28;20254;-66
2023/01/27 08:28:28;;;;;;;0.30;0.30;;;;;;;;;;5123618;28;20262;-67
2023/01/27 08:30:55;;;;;;;0.30;0.30;;;;;;;;;;5112747;28;20268;-69
2023/01/27 08:33:22;;;;;;;0.30;0.30;;;;;;;;;;5123112;28;20303;-69
2023/01/27 08:35:49;;;;;;;0.30;0.30;;;;;;;;;;5113171;28;20298;-68
2023/01/27 08:38:18;;;;;;;0.27;0.27;;;;;;;;;;5123173;28;20236;-68
2023/01/27 08:40:45;;;;;;;0.23;0.23;;;;;;;;;;5113177;28;20248;-69
2023/01/27 08:43:14;;;;;;;0.30;0.30;;;;;;;;;;5123003;28;20242;-73
2023/01/27 08:45:40;;;;;;;0.30;0.30;;;;;;;;;;5112316;28;20235;-69
2023/01/27 08:48:07;;;;;;;0.27;0.27;;;;;;;;;;5122941;28;20539;-69
2023/01/27 08:50:34;;;;;;;0.30;0.30;;;;;;;;;;5114662;28;20261;-68
2023/01/27 08:53:00;;;;;;;0.20;0.20;;;;;;;;;;5126677;28;20197;-67
2023/01/27 08:55:29;;;;;;;0.30;0.30;;;;;;;;;;5116669;28;20222;-68
2023/01/27 08:57:56;;;;;;;0.30;0.30;;;;;;;;;;5126495;28;20199;-68
2023/01/27 09:00:22;;;;;;;0.30;0.30;;;;;;;;;;5116918;28;20392;-70
2023/01/27 09:02:49;;;;;;;0.30;0.30;;;;;;;;;;5126429;28;20261;-65
2023/01/27 09:05:16;;;;;;;0.30;0.30;;;;;;;;;;5116990;28;20222;-68
2023/01/27 09:07:43;;;;;;;0.30;0.30;;;;;;;;;;5126212;28;20510;-66
2023/01/27 09:10:10;;;;;;;0.20;0.20;;;;;;;;;;5127055;28;20275;-66
2023/01/27 09:12:37;;;;;;;0.30;0.30;;;;;;;;;;5115728;28;20255;-65
2023/01/27 09:15:04;;;;;;;0.30;0.30;;;;;;;;;;5127091;28;20397;-67
2023/01/27 09:17:31;;;;;;;0.30;0.30;;;;;;;;;;5115906;28;20520;-66
2023/01/27 09:19:59;;;;;;;0.23;0.23;;;;;;;;;;5127192;28;20228;-66
2023/01/27 09:22:26;;;;;;;0.30;0.30;;;;;;;;;;5115301;28;20285;-66
2023/01/27 09:24:52;;;;;;;0.30;0.30;;;;;;;;;;5127099;28;20290;-65
2023/01/27 09:27:18;;;;;;;0.30;0.30;;;;;;;;;;5115327;28;20248;-67
2023/01/27 09:29:49;;;;;;;0.20;0.20;;;;;;;;;;5126736;28;20232;-65
2023/01/27 09:32:15;;;;;;;0.20;0.20;;;;;;;;;;5115187;28;20315;-64
2023/01/27 09:34:41;;;;;;;0.20;0.20;;;;;;;;;;5126544;28;20223;-64
2023/01/27 09:37:09;;;;;;;0.20;0.20;;;;;;;;;;5115084;28;20302;-65
2023/01/27 09:39:37;;;;;;;0.20;0.20;;;;;;;;;;5126786;28;20542;-65
2023/01/27 09:42:10;;;;;;;0.27;0.27;;;;;;;;;;5115114;28;20263;-65
2023/01/27 09:44:47;;;;;;;0.20;0.20;;;;;;;;;;5126808;28;20191;-65
2023/01/27 09:47:23;;;;;;;0.20;0.20;;;;;;;;;;5114941;28;20562;-65
2023/01/27 09:49:58;;;;;;;0.30;0.30;;;;;;;;;;5126725;28;20189;-69
2023/01/27 09:52:43;;;;;;;0.20;0.20;;;;;;;;;;5114701;28;20302;-66
2023/01/27 09:55:13;;;;;;;0.20;0.20;;;;;;;;;;5125131;28;20235;-68
2023/01/27 09:57:44;;;;;;;0.20;0.20;;;;;;;;;;5125174;28;20434;-67
2023/01/27 10:00:15;;;;;;;0.30;0.30;;;;;;;;;;5117793;28;20539;-66
2023/01/27 10:02:52;;;;;;;0.20;0.20;;;;;;;;;;5124253;28;20220;-67
2023/01/27 10:05:35;;;;;;;0.20;0.20;;;;;;;;;;5115815;28;20247;-67
2023/01/27 10:08:11;;;;;;;0.20;0.20;;;;;;;;;;5125633;28;20259;-69
2023/01/27 10:10:44;;;;;;;0.20;0.20;;;;;;;;;;5115218;28;20383;-68
2023/01/27 10:13:22;;;;;;;0.20;0.20;;;;;;;;;;5125185;28;20203;-66
2023/01/27 10:15:55;;;;;;;0.20;0.20;;;;;;;;;;5115087;28;20281;-66
2023/01/27 10:18:29;;;;;;;0.30;0.30;;;;;;;;;;5125294;28;20227;-68
2023/01/27 10:21:00;;;;;;;4.53;4.23;;;;;;;;;;5114940;28;20246;-69
2023/01/27 10:23:34;;;;;;;0.20;0.20;;;;;;;;;;5125059;28;20218;-68
2023/01/27 10:26:08;;;;;;;0.20;0.20;;;;;;;;;;5115008;28;20303;-68
2023/01/27 10:28:34;;;;;;;0.30;0.30;;;;;;;;;;5125505;28;20384;-68
2023/01/27 10:31:01;;;;;;;0.20;0.20;;;;;;;;;;5114584;28;20263;-68
2023/01/27 10:33:35;;;;;;;0.20;0.20;;;;;;;;;;5125020;28;20242;-68
2023/01/27 10:36:04;;;;;;;0.20;0.20;;;;;;;;;;5114524;28;20263;-68
2023/01/27 10:38:34;;;;;;;0.27;0.27;;;;;;;;;;5124928;28;20508;-68
2023/01/27 10:41:05;;;;;;;0.30;0.30;;;;;;;;;;5114467;28;20248;-69
2023/01/27 10:43:33;;;;;;;0.20;0.20;;;;;;;;;;5125211;28;20358;-68
2023/01/27 10:46:03;;;;;;;0.20;0.20;;;;;;;;;;5114505;28;20312;-68
2023/01/27 10:48:34;;;;;;;0.20;0.20;;;;;;;;;;5124647;28;20209;-68
2023/01/27 10:51:04;;;;;;;0.20;0.20;;;;;;;;;;5114320;28;20235;-68
2023/01/27 10:53:34;;;;;;;0.20;0.20;;;;;;;;;;5124579;28;20278;-68
2023/01/27 10:56:03;;;;;;;0.20;0.20;;;;;;;;;;5114281;28;20274;-68
2023/01/27 10:58:36;;;;;;;0.23;0.23;;;;;;;;;;5124279;28;20208;-68
2023/01/27 11:01:06;;;;;;;0.20;0.20;;;;;;;;;;5114008;28;20239;-68
2023/01/27 11:03:36;;;;;;;0.20;0.20;;;;;;;;;;5124674;28;20214;-68
2023/01/27 11:06:08;;;;;;;0.20;0.20;;;;;;;;;;5114075;28;20567;-68
2023/01/27 11:08:36;;;;;;;0.20;0.20;;;;;;;;;;5124543;28;20193;-68
2023/01/27 11:13:48;;;;;;;0.23;0.23;;;;;;;;;;5124494;28;20229;-68
2023/01/27 11:16:16;;;;;;;0.20;0.20;;;;;;;;;;5113837;28;20306;-68
2023/01/27 11:18:45;;;;;;;0.20;0.20;;;;;;;;;;5124434;28;20216;-68
2023/01/27 11:21:18;;;;;;;0.20;0.20;;;;;;;;;;5113626;28;20304;-68
2023/01/27 11:23:47;;;;;;;0.20;0.20;;;;;;;;;;5124489;28;20214;-68
2023/01/27 11:26:21;;;;;;;0.20;0.20;;;;;;;;;;5113547;28;20240;-69
2023/01/27 11:28:51;;;;;;;0.20;0.20;;;;;;;;;;5124167;28;20227;-68
2023/01/27 11:31:21;;;;;;;0.20;0.20;;;;;;;;;;5113449;28;20499;-69
2023/01/27 11:33:53;;;;;;;0.20;0.20;;;;;;;;;;5124102;28;20308;-68
2023/01/27 11:36:21;;;;;;;0.20;0.20;;;;;;;;;;5113368;28;20307;-69
2023/01/27 11:38:47;;;;;;;0.20;0.20;;;;;;;;;;5123844;28;20225;-68
2023/01/27 11:41:14;;;;;;;0.20;0.20;;;;;;;;;;5113273;28;20267;-69
2023/01/27 11:43:40;;;;;;;0.20;0.20;;;;;;;;;;5123521;28;20272;-69
2023/01/27 11:46:11;;;;;;;0.20;0.20;;;;;;;;;;5113320;28;20259;-69
2023/01/27 11:48:39;;;;;;;0.20;0.20;;;;;;;;;;5124095;28;20231;-69
2023/01/27 11:51:12;;;;;;;0.20;0.20;;;;;;;;;;5113234;28;20439;-69
2023/01/27 11:53:40;;;;;;;0.20;0.20;;;;;;;;;;5123521;28;20260;-68
2023/01/27 11:56:10;;;;;;;0.20;0.20;;;;;;;;;;5113098;28;20240;-69
2023/01/27 11:58:39;;;;;;;0.20;0.20;;;;;;;;;;5123878;28;20397;-70
2023/01/27 12:01:10;;;;;;;0.20;0.20;;;;;;;;;;5113282;28;20255;-70
2023/01/27 12:03:46;;;;;;;0.20;0.20;;;;;;;;;;5123748;28;20440;-69
2023/01/27 12:06:14;;;;;;;0.20;0.20;;;;;;;;;;5112958;28;20247;-70
2023/01/27 12:08:43;;;;;;;0.20;0.20;;;;;;;;;;5123875;28;20204;-69
2023/01/27 12:11:17;;;;;;;0.20;0.20;;;;;;;;;;5112936;28;20248;-68
2023/01/27 12:13:48;;;;;;;0.20;0.20;;;;;;;;;;5123814;28;20292;-68
2023/01/27 12:16:15;;;;;;;0.20;0.20;;;;;;;;;;5112844;28;20255;-69
2023/01/27 12:18:50;;;;;;;0.20;0.20;;;;;;;;;;5123526;28;20204;-69
2023/01/27 12:21:17;;;;;;;0.20;0.20;;;;;;;;;;5112716;28;20239;-70
2023/01/27 12:23:49;;;;;;;0.20;0.20;;;;;;;;;;5123476;28;20216;-68
2023/01/27 12:26:16;;;;;;;0.20;0.20;;;;;;;;;;5115850;28;20311;-69
2023/01/27 12:28:47;;;;;;;0.20;0.20;;;;;;;;;;5127557;28;20220;-69
2023/01/27 12:31:17;;;;;;;0.20;0.20;;;;;;;;;;5116926;28;20251;-69
2023/01/27 12:33:46;;;;;;;0.20;0.20;;;;;;;;;;5127451;28;20210;-69
2023/01/27 12:36:13;;;;;;;0.20;0.20;;;;;;;;;;5116914;28;20240;-69
2023/01/27 12:38:44;;;;;;;0.20;0.20;;;;;;;;;;5127268;28;20273;-69
2023/01/27 12:41:19;;;;;;;0.20;0.20;;;;;;;;;;5116659;28;20240;-69
2023/01/27 12:43:58;;;;;;;0.20;0.20;;;;;;;;;;5127304;28;20262;-68
2023/01/27 12:46:26;;;;;;;0.20;0.20;;;;;;;;;;5116476;28;20240;-68
2023/01/27 12:48:53;;;;;;;0.20;0.20;;;;;;;;;;5127290;28;20450;-68
2023/01/27 12:51:21;;;;;;;0.20;0.20;;;;;;;;;;5116485;28;20261;-68
2023/01/27 12:53:48;;;;;;;0.20;0.20;;;;;;;;;;5127092;28;20272;-68
2023/01/27 12:56:17;;;;;;;0.20;0.20;;;;;;;;;;5116478;28;20513;-68
2023/01/27 12:58:45;;;;;;;0.20;0.20;;;;;;;;;;5127247;28;20393;-70
2023/01/27 13:01:21;;;;;;;0.20;0.20;;;;;;;;;;5116181;28;20241;-69
2023/01/27 13:03:49;;;;;;;0.20;0.20;;;;;;;;;;5127301;28;20196;-68
2023/01/27 13:06:16;;;;;;;0.20;0.20;;;;;;;;;;5116073;28;20256;-69
2023/01/27 13:08:43;;;;;;;0.20;0.20;;;;;;;;;;5127011;28;20243;-69
2023/01/27 13:11:10;;;;;;;0.50;0.50;;;;;;;;;;5116218;28;20253;-69
2023/01/27 13:13:47;;;;;;;0.20;0.20;;;;;;;;;;5126577;28;20243;-68
2023/01/27 13:16:17;;;;;;;0.20;0.20;;;;;;;;;;5115996;28;20259;-69
2023/01/27 13:18:59;;;;;;;0.20;0.20;;;;;;;;;;5126897;28;20255;-69
2023/01/27 13:21:27;;;;;;;0.20;0.20;;;;;;;;;;5115665;28;20245;-69
2023/01/27 13:23:55;;;;;;;0.20;0.20;;;;;;;;;;5126622;28;20197;-71
2023/01/27 13:26:24;;;;;;;0.20;0.20;;;;;;;;;;5115859;28;20444;-70
2023/01/27 13:28:55;;;;;;;0.20;0.20;;;;;;;;;;5126517;28;20205;-70
2023/01/27 13:31:25;;;;;;;0.20;0.20;;;;;;;;;;5115858;28;20579;-69
2023/01/27 13:33:55;;;;;;;0.20;0.20;;;;;;;;;;5126548;28;20200;-69
2023/01/27 13:36:26;;;;;;;0.20;0.20;;;;;;;;;;5114449;28;20497;-69
2023/01/27 13:38:57;;;;;;;0.20;0.20;;;;;;;;;;5126488;28;20236;-70
2023/01/27 13:41:29;;;;;;;0.20;0.20;;;;;;;;;;5115456;28;20535;-70
2023/01/27 13:44:02;;;;;;;0.20;0.20;;;;;;;;;;5126151;28;20200;-69
2023/01/27 13:46:30;;;;;;;0.20;0.20;;;;;;;;;;5115287;28;20240;-69
2023/01/27 13:48:58;;;;;;;0.20;0.20;;;;;;;;;;5126399;28;20209;-69
2023/01/27 13:51:27;;;;;;;0.20;0.20;;;;;;;;;;5115230;28;20550;-70
2023/01/27 13:53:57;;;;;;;0.20;0.20;;;;;;;;;;5126049;28;20246;-69
2023/01/27 13:56:29;;;;;;;0.20;0.20;;;;;;;;;;5115210;28;20327;-68
2023/01/27 13:59:00;;;;;;;0.20;0.20;;;;;;;;;;5125997;28;20199;-69
2023/01/27 14:01:31;;;;;;;0.20;0.20;;;;;;;;;;5114775;28;20312;-68
2023/01/27 14:04:09;;;;;;;0.20;0.20;;;;;;;;;;5125875;28;20212;-67
2023/01/27 14:06:42;;;;;;;0.20;0.20;;;;;;;;;;5114785;28;20255;-68
2023/01/27 14:09:12;;;;;;;0.20;0.20;;;;;;;;;;5125949;28;20395;-68
2023/01/27 14:11:42;;;;;;;0.20;0.20;;;;;;;;;;5114769;28;20323;-68
2023/01/27 14:14:17;;;;;;;0.20;0.20;;;;;;;;;;5125835;28;20510;-68
2023/01/27 14:16:51;;;;;;;0.20;0.20;;;;;;;;;;5114735;28;20582;-67
2023/01/27 14:19:25;;;;;;;0.20;0.20;;;;;;;;;;5125955;28;20264;-67
2023/01/27 14:21:54;;;;;;;0.20;0.20;;;;;;;;;;5114238;28;20650;-68
2023/01/27 14:24:24;;;;;;;0.20;0.20;;;;;;;;;;5125873;28;20275;-67
2023/01/27 14:26:53;;;;;;;0.20;0.20;;;;;;;;;;5114271;28;20233;-68
2023/01/27 14:29:30;;;;;;;0.20;0.20;;;;;;;;;;5125769;28;20205;-67
2023/01/27 14:32:00;;;;;;;0.20;0.20;;;;;;;;;;5117641;28;20251;-70
2023/01/27 14:34:32;;;;;;;0.20;0.20;;;;;;;;;;5125506;28;20246;-69
2023/01/27 14:37:01;;;;;;;0.20;0.20;;;;;;;;;;5114050;28;20585;-69
2023/01/27 14:39:32;;;;;;;0.20;0.20;;;;;;;;;;5125660;28;20254;-76
2023/01/27 14:42:02;;;;;;;0.20;0.20;;;;;;;;;;5113978;28;20236;-74
2023/01/27 14:44:35;;;;;;;0.20;0.20;;;;;;;;;;5125346;28;20210;-70
2023/01/27 14:47:07;;;;;;;0.20;0.20;;;;;;;;;;5113648;28;20447;-71
2023/01/27 14:49:41;;;;;;;0.20;0.20;;;;;;;;;;5124846;28;20201;-71
2023/01/27 14:52:15;;;;;;;0.20;0.20;;;;;;;;;;5113641;28;20252;-70
2023/01/27 14:54:52;;;;;;;0.20;0.20;;;;;;;;;;5125348;28;20196;-71
2023/01/27 14:57:24;;;;;;;0.20;0.20;;;;;;;;;;5113538;28;20334;-70
2023/01/27 14:59:56;;;;;;;0.20;0.20;;;;;;;;;;5125305;28;20191;-71
2023/01/27 15:02:32;;;;;;;0.20;0.20;;;;;;;;;;5113602;28;20241;-70
2023/01/27 15:05:03;;;;;;;0.20;0.20;;;;;;;;;;5125264;28;20496;-72
2023/01/27 15:07:34;;;;;;;0.20;0.20;;;;;;;;;;5113341;28;20631;-72
2023/01/27 15:10:10;;;;;;;0.20;0.20;;;;;;;;;;5125118;28;20200;-72
2023/01/27 15:12:46;;;;;;;0.20;0.20;;;;;;;;;;5096296;28;20228;-72
2023/01/27 15:15:24;;;;;;;0.20;0.20;;;;;;;;;;5114506;28;20204;-72
2023/01/27 15:17:55;;;;;;;0.20;0.20;;;;;;;;;;5124142;28;20259;-73
2023/01/27 15:20:30;;;;;;;0.20;0.20;;;;;;;;;;5114016;28;20255;-72
2023/01/27 15:23:08;;;;;;;0.20;0.20;;;;;;;;;;5123645;28;20279;-72
2023/01/27 15:25:36;;;;;;;0.20;0.20;;;;;;;;;;5114086;28;20315;-72
2023/01/27 15:28:04;;;;;;;0.20;0.20;;;;;;;;;;5124079;28;20207;-72
2023/01/27 15:30:36;;;;;;;0.20;0.20;;;;;;;;;;5113823;28;20239;-72